sensor_id;sensor_type;location;lat;lon;timestamp;pressure;altitude;pressure_sealevel;temperature;humidity
4410;BME280;2218;51.408;7.208;2023-04-29T00:01:33;99425.75;;;20.00;50.83
4410;BME280;2218;51.408;7.208;2023-04-29T00:03:59;99420.50;;;20.00;50.82
4410;BME280;2218;51.408;7.208;2023-04-29T00:06:27;99423.97;;;20.00;50.66
4410;BME280;2218;51.408;7.208;2023-04-29T00:08:55;99425.75;;;20.00;51.04
4410;BME280;2218;51.408;7.208;2023-04-29T00:11:21;99424.06;;;19.99;50.81
4410;BME280;2218;51.408;7.208;2023-04-29T00:13:48;99429.34;;;19.99;50.52
4410;BME280;2218;51.408;7.208;2023-04-29T00:16:17;99427.66;;;19.98;50.69
4410;BME280;2218;51.408;7.208;2023-04-29T00:18:44;99432.94;;;19.98;50.54
4410;BME280;2218;51.408;7.208;2023-04-29T00:21:11;99435.56;;;19.98;50.61
4410;BME280;2218;51.408;7.208;2023-04-29T00:23:38;99429.59;;;19.96;50.68
4410;BME280;2218;51.408;7.208;2023-04-29T00:26:05;99434.72;;;19.97;50.67
4410;BME280;2218;51.408;7.208;2023-04-29T00:28:32;99439.16;;;19.97;50.43
4410;BME280;2218;51.408;7.208;2023-04-29T00:30:59;99447.09;;;19.97;50.45
4410;BME280;2218;51.408;7.208;2023-04-29T00:33:28;99440.13;;;19.96;50.44
4410;BME280;2218;51.408;7.208;2023-04-29T00:35:55;99442.78;;;19.96;50.59
4410;BME280;2218;51.408;7.208;2023-04-29T00:38:22;99444.56;;;19.95;50.23
4410;BME280;2218;51.408;7.208;2023-04-29T00:40:49;99449.00;;;19.95;50.31
4410;BME280;2218;51.408;7.208;2023-04-29T00:43:16;99454.28;;;19.95;50.49
4410;BME280;2218;51.408;7.208;2023-04-29T00:45:43;99456.94;;;19.95;50.39
4410;BME280;2218;51.408;7.208;2023-04-29T00:48:11;99454.28;;;19.95;50.43
4410;BME280;2218;51.408;7.208;2023-04-29T00:50:41;99459.56;;;19.95;50.19
4410;BME280;2218;51.408;7.208;2023-04-29T00:53:10;99460.50;;;19.94;50.37
4410;BME280;2218;51.408;7.208;2023-04-29T00:55:38;99468.41;;;19.94;50.17
4410;BME280;2218;51.408;7.208;2023-04-29T00:58:06;99464.00;;;19.94;50.13
4410;BME280;2218;51.408;7.208;2023-04-29T01:00:35;99467.56;;;19.93;50.32
4410;BME280;2218;51.408;7.208;2023-04-29T01:03:04;99478.13;;;19.93;50.24
4410;BME280;2218;51.408;7.208;2023-04-29T01:05:31;99480.88;;;19.92;50.22
4410;BME280;2218;51.408;7.208;2023-04-29T01:08:14;99476.44;;;19.92;50.23
4410;BME280;2218;51.408;7.208;2023-04-29T01:10:53;99488.78;;;19.92;50.17
4410;BME280;2218;51.408;7.208;2023-04-29T01:13:30;99491.44;;;19.92;50.24
4410;BME280;2218;51.408;7.208;2023-04-29T01:16:10;99481.72;;;19.92;50.25
4410;BME280;2218;51.408;7.208;2023-04-29T01:18:42;99483.66;;;19.90;50.17
4410;BME280;2218;51.408;7.208;2023-04-29T01:21:15;99488.78;;;19.92;50.07
4410;BME280;2218;51.408;7.208;2023-04-29T01:23:45;99492.28;;;19.92;50.09
4410;BME280;2218;51.408;7.208;2023-04-29T01:26:13;99497.66;;;19.91;49.96
4410;BME280;2218;51.408;7.208;2023-04-29T01:29:18;99496.84;;;19.90;50.03
4410;BME280;2218;51.408;7.208;2023-04-29T01:31:59;99493.34;;;19.90;49.95
4410;BME280;2218;51.408;7.208;2023-04-29T01:34:33;99502.19;;;19.88;49.92
4410;BME280;2218;51.408;7.208;2023-04-29T01:37:13;99508.34;;;19.89;50.03
4410;BME280;2218;51.408;7.208;2023-04-29T01:39:57;99509.19;;;19.90;49.95
4410;BME280;2218;51.408;7.208;2023-04-29T01:42:35;99512.75;;;19.88;49.99
4410;BME280;2218;51.408;7.208;2023-04-29T01:45:14;99515.38;;;19.88;50.03
4410;BME280;2218;51.408;7.208;2023-04-29T01:47:42;99511.91;;;19.88;49.88
4410;BME280;2218;51.408;7.208;2023-04-29T01:50:10;99512.88;;;19.87;49.96
4410;BME280;2218;51.408;7.208;2023-04-29T01:52:38;99514.69;;;19.86;49.95
4410;BME280;2218;51.408;7.208;2023-04-29T01:55:07;99512.03;;;19.86;49.95
4410;BME280;2218;51.408;7.208;2023-04-29T01:57:50;99510.34;;;19.85;49.66
4410;BME280;2218;51.408;7.208;2023-04-29T02:00:30;99514.69;;;19.86;49.82
4410;BME280;2218;51.408;7.208;2023-04-29T02:02:57;99519.09;;;19.86;49.90
4410;BME280;2218;51.408;7.208;2023-04-29T02:05:36;99518.28;;;19.85;49.88
4410;BME280;2218;51.408;7.208;2023-04-29T02:08:04;99521.75;;;19.86;49.66
4410;BME280;2218;51.408;7.208;2023-04-29T02:10:36;99522.72;;;19.85;49.76
4410;BME280;2218;51.408;7.208;2023-04-29T02:13:20;99516.59;;;19.84;49.84
4410;BME280;2218;51.408;7.208;2023-04-29T02:15:47;99521.88;;;19.84;49.74
4410;BME280;2218;51.408;7.208;2023-04-29T02:18:15;99531.56;;;19.84;49.91
4410;BME280;2218;51.408;7.208;2023-04-29T02:20:42;99531.56;;;19.84;49.67
4410;BME280;2218;51.408;7.208;2023-04-29T02:23:09;99529.03;;;19.82;49.74
4410;BME280;2218;51.408;7.208;2023-04-29T02:25:37;99536.00;;;19.83;49.74
4410;BME280;2218;51.408;7.208;2023-04-29T02:28:04;99544.03;;;19.82;49.63
4410;BME280;2218;51.408;7.208;2023-04-29T02:30:32;99538.75;;;19.82;49.69
4410;BME280;2218;51.408;7.208;2023-04-29T02:32:58;99543.19;;;19.81;49.48
4410;BME280;2218;51.408;7.208;2023-04-29T02:35:25;99548.47;;;19.81;49.48
4410;BME280;2218;51.408;7.208;2023-04-29T02:37:53;99558.16;;;19.81;49.76
4410;BME280;2218;51.408;7.208;2023-04-29T02:40:20;99559.84;;;19.82;49.58
4410;BME280;2218;51.408;7.208;2023-04-29T02:42:48;99559.00;;;19.81;49.65
4410;BME280;2218;51.408;7.208;2023-04-29T02:45:15;99563.44;;;19.81;49.58
4410;BME280;2218;51.408;7.208;2023-04-29T02:47:43;99561.63;;;19.81;49.59
4410;BME280;2218;51.408;7.208;2023-04-29T02:50:10;99559.00;;;19.81;49.76
4410;BME280;2218;51.408;7.208;2023-04-29T02:52:37;99570.50;;;19.80;49.58
4410;BME280;2218;51.408;7.208;2023-04-29T02:55:07;99571.34;;;19.81;49.66
4410;BME280;2218;51.408;7.208;2023-04-29T02:57:34;99574.81;;;19.81;49.64
4410;BME280;2218;51.408;7.208;2023-04-29T03:00:05;99578.44;;;19.80;49.61
4410;BME280;2218;51.408;7.208;2023-04-29T03:02:33;99574.81;;;19.81;49.42
4410;BME280;2218;51.408;7.208;2023-04-29T03:05:00;99580.22;;;19.80;49.47
4410;BME280;2218;51.408;7.208;2023-04-29T03:07:28;99578.44;;;19.80;49.38
4410;BME280;2218;51.408;7.208;2023-04-29T03:09:55;99582.03;;;19.79;49.45
4410;BME280;2218;51.408;7.208;2023-04-29T03:12:22;99576.75;;;19.79;49.46
4410;BME280;2218;51.408;7.208;2023-04-29T03:14:49;99582.88;;;19.80;49.47
4410;BME280;2218;51.408;7.208;2023-04-29T03:17:18;99584.53;;;19.81;49.41
4410;BME280;2218;51.408;7.208;2023-04-29T03:19:46;99588.97;;;19.80;49.46
4410;BME280;2218;51.408;7.208;2023-04-29T03:22:13;99591.69;;;19.79;49.28
4410;BME280;2218;51.408;7.208;2023-04-29T03:24:42;99589.06;;;19.79;49.27
4410;BME280;2218;51.408;7.208;2023-04-29T03:27:09;99587.28;;;19.79;49.25
4410;BME280;2218;51.408;7.208;2023-04-29T03:29:36;99595.22;;;19.79;49.28
4410;BME280;2218;51.408;7.208;2023-04-29T03:32:04;99597.84;;;19.79;49.27
4410;BME280;2218;51.408;7.208;2023-04-29T03:34:32;99597.84;;;19.79;49.13
4410;BME280;2218;51.408;7.208;2023-04-29T03:37:26;99590.84;;;19.78;49.27
4410;BME280;2218;51.408;7.208;2023-04-29T03:40:04;99599.72;;;19.77;49.09
4410;BME280;2218;51.408;7.208;2023-04-29T03:42:32;99605.84;;;19.78;49.12
4410;BME280;2218;51.408;7.208;2023-04-29T03:44:58;99605.84;;;19.78;49.27
4410;BME280;2218;51.408;7.208;2023-04-29T03:47:25;99602.38;;;19.77;49.11
4410;BME280;2218;51.408;7.208;2023-04-29T03:49:54;99610.28;;;19.77;49.31
4410;BME280;2218;51.408;7.208;2023-04-29T03:52:21;99611.13;;;19.78;49.19
4410;BME280;2218;51.408;7.208;2023-04-29T03:54:50;99611.97;;;19.78;49.32
4410;BME280;2218;51.408;7.208;2023-04-29T03:57:17;99610.28;;;19.77;49.08
4410;BME280;2218;51.408;7.208;2023-04-29T03:59:44;99611.25;;;19.76;49.17
4410;BME280;2218;51.408;7.208;2023-04-29T04:02:15;99615.56;;;19.77;49.01
4410;BME280;2218;51.408;7.208;2023-04-29T04:04:42;99614.72;;;19.77;49.11
4410;BME280;2218;51.408;7.208;2023-04-29T04:07:10;99615.56;;;19.77;49.07
4410;BME280;2218;51.408;7.208;2023-04-29T04:09:57;99620.81;;;19.77;49.08
4410;BME280;2218;51.408;7.208;2023-04-29T04:12:24;99624.44;;;19.76;48.93
4410;BME280;2218;51.408;7.208;2023-04-29T04:14:51;99620.13;;;19.75;49.01
4410;BME280;2218;51.408;7.208;2023-04-29T04:17:20;99628.03;;;19.75;48.82
4410;BME280;2218;51.408;7.208;2023-04-29T04:19:46;99636.78;;;19.76;49.08
4410;BME280;2218;51.408;7.208;2023-04-29T04:22:15;99634.97;;;19.76;48.98
4410;BME280;2218;51.408;7.208;2023-04-29T04:24:54;99645.53;;;19.76;48.84
4410;BME280;2218;51.408;7.208;2023-04-29T04:27:22;99637.59;;;19.76;48.96
4410;BME280;2218;51.408;7.208;2023-04-29T04:29:52;99639.41;;;19.76;48.78
4410;BME280;2218;51.408;7.208;2023-04-29T04:32:26;99644.69;;;19.76;48.88
4410;BME280;2218;51.408;7.208;2023-04-29T04:34:53;99649.94;;;19.76;48.78
4410;BME280;2218;51.408;7.208;2023-04-29T04:37:21;99649.94;;;19.76;48.93
4410;BME280;2218;51.408;7.208;2023-04-29T04:39:52;99649.13;;;19.75;48.61
4410;BME280;2218;51.408;7.208;2023-04-29T04:42:21;99651.75;;;19.75;48.18
4410;BME280;2218;51.408;7.208;2023-04-29T04:44:51;99658.81;;;19.75;48.88
4410;BME280;2218;51.408;7.208;2023-04-29T04:47:44;99664.09;;;19.75;48.78
4410;BME280;2218;51.408;7.208;2023-04-29T04:50:20;99664.09;;;19.75;48.88
4410;BME280;2218;51.408;7.208;2023-04-29T04:52:50;99670.22;;;19.75;48.84
4410;BME280;2218;51.408;7.208;2023-04-29T04:55:35;99673.81;;;19.74;48.73
4410;BME280;2218;51.408;7.208;2023-04-29T04:58:02;99671.16;;;19.74;48.81
4410;BME280;2218;51.408;7.208;2023-04-29T05:00:30;99676.44;;;19.74;48.65
4410;BME280;2218;51.408;7.208;2023-04-29T05:02:57;99672.94;;;19.74;48.68
4410;BME280;2218;51.408;7.208;2023-04-29T05:05:24;99680.84;;;19.74;48.75
4410;BME280;2218;51.408;7.208;2023-04-29T05:07:52;99680.84;;;19.74;48.79
4410;BME280;2218;51.408;7.208;2023-04-29T05:10:25;99682.66;;;19.73;48.78
4410;BME280;2218;51.408;7.208;2023-04-29T05:12:55;99688.75;;;19.74;48.66
4410;BME280;2218;51.408;7.208;2023-04-29T05:15:22;99688.75;;;19.74;48.67
4410;BME280;2218;51.408;7.208;2023-04-29T05:17:52;99687.91;;;19.73;48.55
4410;BME280;2218;51.408;7.208;2023-04-29T05:20:19;99700.19;;;19.74;48.74
4410;BME280;2218;51.408;7.208;2023-04-29T05:22:47;99692.34;;;19.73;48.71
4410;BME280;2218;51.408;7.208;2023-04-29T05:25:16;99690.66;;;19.72;48.50
4410;BME280;2218;51.408;7.208;2023-04-29T05:27:43;99703.75;;;19.73;48.63
4410;BME280;2218;51.408;7.208;2023-04-29T05:30:14;99703.75;;;19.73;48.71
4410;BME280;2218;51.408;7.208;2023-04-29T05:32:42;99705.53;;;19.73;48.51
4410;BME280;2218;51.408;7.208;2023-04-29T05:35:13;99714.28;;;19.73;48.74
4410;BME280;2218;51.408;7.208;2023-04-29T05:37:40;99711.66;;;19.73;48.55
4410;BME280;2218;51.408;7.208;2023-04-29T05:40:25;99713.44;;;19.73;48.58
4410;BME280;2218;51.408;7.208;2023-04-29T05:43:00;99712.59;;;19.72;48.59
4410;BME280;2218;51.408;7.208;2023-04-29T05:45:26;99721.34;;;19.73;48.60
4410;BME280;2218;51.408;7.208;2023-04-29T05:47:54;99722.19;;;19.73;48.61
4410;BME280;2218;51.408;7.208;2023-04-29T05:50:21;99725.78;;;19.72;48.53
4410;BME280;2218;51.408;7.208;2023-04-29T05:52:48;99729.38;;;19.71;48.37
4410;BME280;2218;51.408;7.208;2023-04-29T05:55:16;99738.97;;;19.72;48.45
4410;BME280;2218;51.408;7.208;2023-04-29T05:57:45;99738.13;;;19.72;48.65
4410;BME280;2218;51.408;7.208;2023-04-29T06:00:12;99748.56;;;19.73;48.68
4410;BME280;2218;51.408;7.208;2023-04-29T06:02:39;99744.25;;;19.72;48.50
4410;BME280;2218;51.408;7.208;2023-04-29T06:05:09;99751.31;;;19.72;48.27
4410;BME280;2218;51.408;7.208;2023-04-29T06:07:42;99746.16;;;19.70;48.32
4410;BME280;2218;51.408;7.208;2023-04-29T06:10:29;99761.03;;;19.71;48.42
4410;BME280;2218;51.408;7.208;2023-04-29T06:12:58;99768.94;;;19.71;48.36
4410;BME280;2218;51.408;7.208;2023-04-29T06:15:25;99766.28;;;19.71;48.14
4410;BME280;2218;51.408;7.208;2023-04-29T06:17:52;99769.78;;;19.72;48.31
4410;BME280;2218;51.408;7.208;2023-04-29T06:20:19;99775.88;;;19.72;48.29
4410;BME280;2218;51.408;7.208;2023-04-29T06:22:46;99775.06;;;19.72;48.89
4410;BME280;2218;51.408;7.208;2023-04-29T06:25:14;99770.63;;;19.72;48.43
4410;BME280;2218;51.408;7.208;2023-04-29T06:27:45;99772.53;;;19.70;48.30
4410;BME280;2218;51.408;7.208;2023-04-29T06:30:15;99774.22;;;19.71;48.13
4410;BME280;2218;51.408;7.208;2023-04-29T06:32:43;99784.75;;;19.71;48.14
4410;BME280;2218;51.408;7.208;2023-04-29T06:35:10;99785.72;;;19.70;48.13
4410;BME280;2218;51.408;7.208;2023-04-29T06:37:56;99790.03;;;19.71;48.14
4410;BME280;2218;51.408;7.208;2023-04-29T06:40:41;99797.94;;;19.71;48.08
4410;BME280;2218;51.408;7.208;2023-04-29T06:43:27;99802.50;;;19.69;48.26
4410;BME280;2218;51.408;7.208;2023-04-29T06:46:12;99802.50;;;19.69;48.17
4410;BME280;2218;51.408;7.208;2023-04-29T06:49:01;99808.50;;;19.71;48.31
4410;BME280;2218;51.408;7.208;2023-04-29T06:51:30;99812.06;;;19.70;48.14
4410;BME280;2218;51.408;7.208;2023-04-29T06:53:58;99819.16;;;19.70;48.06
4410;BME280;2218;51.408;7.208;2023-04-29T06:56:25;99821.66;;;19.71;48.33
4410;BME280;2218;51.408;7.208;2023-04-29T06:58:52;99814.72;;;19.70;48.02
4410;BME280;2218;51.408;7.208;2023-04-29T07:01:20;99826.94;;;19.71;48.24
4410;BME280;2218;51.408;7.208;2023-04-29T07:03:49;99828.84;;;19.69;48.12
4410;BME280;2218;51.408;7.208;2023-04-29T07:06:18;99820.00;;;19.70;48.20
4410;BME280;2218;51.408;7.208;2023-04-29T07:08:45;99832.34;;;19.70;48.02
4410;BME280;2218;51.408;7.208;2023-04-29T07:11:14;99833.16;;;19.70;48.01
4410;BME280;2218;51.408;7.208;2023-04-29T07:13:41;99831.50;;;19.69;48.10
4410;BME280;2218;51.408;7.208;2023-04-29T07:16:14;99840.31;;;19.68;48.25
4410;BME280;2218;51.408;7.208;2023-04-29T07:18:44;99844.69;;;19.69;48.16
4410;BME280;2218;51.408;7.208;2023-04-29T07:21:11;99844.69;;;19.69;47.97
4410;BME280;2218;51.408;7.208;2023-04-29T07:23:38;99851.72;;;19.69;48.11
4410;BME280;2218;51.408;7.208;2023-04-29T07:26:09;99859.63;;;19.69;48.11
4410;BME280;2218;51.408;7.208;2023-04-29T07:28:36;99857.94;;;19.68;47.98
4410;BME280;2218;51.408;7.208;2023-04-29T07:31:04;99862.38;;;19.67;47.90
4410;BME280;2218;51.408;7.208;2023-04-29T07:33:31;99869.34;;;19.68;48.03
4410;BME280;2218;51.408;7.208;2023-04-29T07:35:59;99871.97;;;19.68;47.94
4410;BME280;2218;51.408;7.208;2023-04-29T07:38:27;99876.31;;;19.69;47.91
4410;BME280;2218;51.408;7.208;2023-04-29T07:40:54;99874.59;;;19.68;47.77
4410;BME280;2218;51.408;7.208;2023-04-29T07:43:21;99877.25;;;19.68;47.83
4410;BME280;2218;51.408;7.208;2023-04-29T07:45:48;99889.59;;;19.68;47.89
4410;BME280;2218;51.408;7.208;2023-04-29T07:48:15;99886.94;;;19.68;47.82
4410;BME280;2218;51.408;7.208;2023-04-29T07:50:42;99897.50;;;19.68;47.97
4410;BME280;2218;51.408;7.208;2023-04-29T07:53:11;99891.38;;;19.67;47.98
4410;BME280;2218;51.408;7.208;2023-04-29T07:55:38;99901.09;;;19.67;47.80
4410;BME280;2218;51.408;7.208;2023-04-29T07:58:05;99912.47;;;19.67;47.90
4410;BME280;2218;51.408;7.208;2023-04-29T08:00:33;99903.72;;;19.67;47.85
4410;BME280;2218;51.408;7.208;2023-04-29T08:03:00;99913.31;;;19.68;47.73
4410;BME280;2218;51.408;7.208;2023-04-29T08:05:27;99911.63;;;19.67;47.85
4410;BME280;2218;51.408;7.208;2023-04-29T08:07:55;99914.28;;;19.67;47.83
4410;BME280;2218;51.408;7.208;2023-04-29T08:10:25;99918.69;;;19.66;47.93
4410;BME280;2218;51.408;7.208;2023-04-29T08:12:52;99924.81;;;19.67;47.93
4410;BME280;2218;51.408;7.208;2023-04-29T08:15:21;99923.97;;;19.66;47.72
4410;BME280;2218;51.408;7.208;2023-04-29T08:17:48;99929.25;;;19.66;47.75
4410;BME280;2218;51.408;7.208;2023-04-29T08:20:15;99932.72;;;19.67;47.92
4410;BME280;2218;51.408;7.208;2023-04-29T08:22:42;99932.84;;;19.65;48.01
4410;BME280;2218;51.408;7.208;2023-04-29T08:25:10;99931.88;;;19.66;47.96
4410;BME280;2218;51.408;7.208;2023-04-29T08:27:38;99937.16;;;19.66;47.80
4410;BME280;2218;51.408;7.208;2023-04-29T08:30:07;99938.09;;;19.65;47.83
4410;BME280;2218;51.408;7.208;2023-04-29T08:32:34;99938.94;;;19.66;47.72
4410;BME280;2218;51.408;7.208;2023-04-29T08:35:01;99936.41;;;19.64;47.88
4410;BME280;2218;51.408;7.208;2023-04-29T08:37:28;99937.16;;;19.66;47.84
4410;BME280;2218;51.408;7.208;2023-04-29T08:39:55;99947.69;;;19.66;47.75
4410;BME280;2218;51.408;7.208;2023-04-29T08:42:33;99946.03;;;19.65;47.84
4410;BME280;2218;51.408;7.208;2023-04-29T08:45:03;99951.28;;;19.65;47.83
4410;BME280;2218;51.408;7.208;2023-04-29T08:47:31;99957.41;;;19.66;47.88
4410;BME280;2218;51.408;7.208;2023-04-29T08:50:02;99957.50;;;19.64;47.98
4410;BME280;2218;51.408;7.208;2023-04-29T08:52:30;99964.47;;;19.65;47.76
4410;BME280;2218;51.408;7.208;2023-04-29T08:54:58;99963.63;;;19.65;47.68
4410;BME280;2218;51.408;7.208;2023-04-29T08:57:28;99972.38;;;19.65;47.61
4410;BME280;2218;51.408;7.208;2023-04-29T08:59:58;99974.19;;;19.65;47.67
4410;BME280;2218;51.408;7.208;2023-04-29T09:02:27;99975.03;;;19.65;47.67
4410;BME280;2218;51.408;7.208;2023-04-29T09:05:04;99975.94;;;19.64;47.78
4410;BME280;2218;51.408;7.208;2023-04-29T09:07:33;99975.03;;;19.65;47.60
4410;BME280;2218;51.408;7.208;2023-04-29T09:10:03;99973.31;;;19.64;47.89
4410;BME280;2218;51.408;7.208;2023-04-29T09:12:30;99980.28;;;19.65;47.86
4410;BME280;2218;51.408;7.208;2023-04-29T09:14:57;99985.66;;;19.63;47.74
4410;BME280;2218;51.408;7.208;2023-04-29T09:17:40;99990.91;;;19.63;47.26
4410;BME280;2218;51.408;7.208;2023-04-29T09:20:28;99989.13;;;19.64;47.62
4410;BME280;2218;51.408;7.208;2023-04-29T09:22:58;99990.00;;;19.65;47.80
4410;BME280;2218;51.408;7.208;2023-04-29T09:25:26;99990.00;;;19.65;47.86
4410;BME280;2218;51.408;7.208;2023-04-29T09:27:54;99990.00;;;19.65;47.90
4410;BME280;2218;51.408;7.208;2023-04-29T09:30:22;99999.69;;;19.64;47.81
4410;BME280;2218;51.408;7.208;2023-04-29T09:33:07;99998.84;;;19.63;47.83
4410;BME280;2218;51.408;7.208;2023-04-29T09:35:35;100004.94;;;19.64;47.81
4410;BME280;2218;51.408;7.208;2023-04-29T09:38:11;100010.22;;;19.64;47.67
4410;BME280;2218;51.408;7.208;2023-04-29T09:40:40;100015.50;;;19.64;47.70
4410;BME280;2218;51.408;7.208;2023-04-29T09:43:13;100020.78;;;19.64;47.83
4410;BME280;2218;51.408;7.208;2023-04-29T09:45:43;100016.38;;;19.65;47.85
4410;BME280;2218;51.408;7.208;2023-04-29T09:48:13;100023.41;;;19.64;47.64
4410;BME280;2218;51.408;7.208;2023-04-29T09:50:42;100020.78;;;19.64;47.83
4410;BME280;2218;51.408;7.208;2023-04-29T09:53:28;100035.66;;;19.65;47.58
4410;BME280;2218;51.408;7.208;2023-04-29T09:56:01;100024.16;;;19.66;47.60
4410;BME280;2218;51.408;7.208;2023-04-29T09:58:30;100027.66;;;19.67;47.76
4410;BME280;2218;51.408;7.208;2023-04-29T10:01:02;100023.22;;;19.67;47.69
4410;BME280;2218;51.408;7.208;2023-04-29T10:03:34;100027.66;;;19.67;47.50
4410;BME280;2218;51.408;7.208;2023-04-29T10:06:03;100025.84;;;19.67;47.85
4410;BME280;2218;51.408;7.208;2023-04-29T10:08:32;100023.22;;;19.67;47.47
4410;BME280;2218;51.408;7.208;2023-04-29T10:11:02;100028.50;;;19.67;47.62
4410;BME280;2218;51.408;7.208;2023-04-29T10:13:33;100039.03;;;19.67;47.54
4410;BME280;2218;51.408;7.208;2023-04-29T10:16:24;100031.13;;;19.67;47.52
4410;BME280;2218;51.408;7.208;2023-04-29T10:18:59;100033.75;;;19.67;47.61
4410;BME280;2218;51.408;7.208;2023-04-29T10:21:29;100038.94;;;19.69;47.53
4410;BME280;2218;51.408;7.208;2023-04-29T10:23:58;100029.25;;;19.69;47.62
4410;BME280;2218;51.408;7.208;2023-04-29T10:26:28;100034.53;;;19.69;47.46
4410;BME280;2218;51.408;7.208;2023-04-29T10:28:58;100030.94;;;19.70;47.58
4410;BME280;2218;51.408;7.208;2023-04-29T10:31:26;100036.22;;;19.70;47.57
4410;BME280;2218;51.408;7.208;2023-04-29T10:33:56;100037.91;;;19.71;47.68
4410;BME280;2218;51.408;7.208;2023-04-29T10:36:25;100041.25;;;19.73;47.69
4410;BME280;2218;51.408;7.208;2023-04-29T10:38:58;100040.41;;;19.73;47.80
4410;BME280;2218;51.408;7.208;2023-04-29T10:41:30;100046.53;;;19.73;47.48
4410;BME280;2218;51.408;7.208;2023-04-29T10:43:59;100046.53;;;19.73;47.67
4410;BME280;2218;51.408;7.208;2023-04-29T10:46:26;100048.25;;;19.74;47.68
4410;BME280;2218;51.408;7.208;2023-04-29T10:49:00;100052.56;;;19.75;47.52
4410;BME280;2218;51.408;7.208;2023-04-29T10:51:31;100040.22;;;19.76;47.39
4410;BME280;2218;51.408;7.208;2023-04-29T10:54:00;100052.47;;;19.77;47.60
4410;BME280;2218;51.408;7.208;2023-04-29T10:56:47;100051.63;;;19.76;47.67
4410;BME280;2218;51.408;7.208;2023-04-29T10:59:21;100051.63;;;19.76;47.66
4410;BME280;2218;51.408;7.208;2023-04-29T11:01:50;100051.63;;;19.76;47.66
4410;BME280;2218;51.408;7.208;2023-04-29T11:04:20;100054.16;;;19.78;47.50
4410;BME280;2218;51.408;7.208;2023-04-29T11:06:52;100051.44;;;19.79;47.43
4410;BME280;2218;51.408;7.208;2023-04-29T11:09:23;100056.69;;;19.79;47.42
4410;BME280;2218;51.408;7.208;2023-04-29T11:12:01;100058.38;;;19.80;47.61
4410;BME280;2218;51.408;7.208;2023-04-29T11:14:35;100058.38;;;19.80;47.40
4410;BME280;2218;51.408;7.208;2023-04-29T11:17:04;100062.81;;;19.80;47.41
4410;BME280;2218;51.408;7.208;2023-04-29T11:19:39;100067.25;;;19.79;47.66
4410;BME280;2218;51.408;7.208;2023-04-29T11:22:24;100061.97;;;19.79;47.41
4410;BME280;2218;51.408;7.208;2023-04-29T11:24:53;100060.19;;;19.80;47.42
4410;BME280;2218;51.408;7.208;2023-04-29T11:27:23;100062.72;;;19.81;47.65
4410;BME280;2218;51.408;7.208;2023-04-29T11:29:57;100067.03;;;19.82;47.46
4410;BME280;2218;51.408;7.208;2023-04-29T11:32:25;100061.75;;;19.82;47.57
4410;BME280;2218;51.408;7.208;2023-04-29T11:34:55;100063.44;;;19.83;47.37
4410;BME280;2218;51.408;7.208;2023-04-29T11:37:32;100062.59;;;19.83;47.45
4410;BME280;2218;51.408;7.208;2023-04-29T11:39:59;100065.22;;;19.83;47.46
4410;BME280;2218;51.408;7.208;2023-04-29T11:42:26;100069.66;;;19.82;47.38
4410;BME280;2218;51.408;7.208;2023-04-29T11:44:54;100072.31;;;19.82;47.70
4410;BME280;2218;51.408;7.208;2023-04-29T11:47:26;100070.50;;;19.83;47.50
4410;BME280;2218;51.408;7.208;2023-04-29T11:50:03;100076.63;;;19.83;47.57
4410;BME280;2218;51.408;7.208;2023-04-29T11:52:32;100069.56;;;19.84;47.53
4410;BME280;2218;51.408;7.208;2023-04-29T11:55:01;100077.41;;;19.85;47.44
4410;BME280;2218;51.408;7.208;2023-04-29T11:57:29;100076.56;;;19.85;47.36
4410;BME280;2218;51.408;7.208;2023-04-29T11:59:56;100073.91;;;19.85;47.31
4410;BME280;2218;51.408;7.208;2023-04-29T12:02:28;100077.41;;;19.85;47.31
4410;BME280;2218;51.408;7.208;2023-04-29T12:04:56;100072.13;;;19.85;47.49
4410;BME280;2218;51.408;7.208;2023-04-29T12:07:24;100074.75;;;19.85;47.49
4410;BME280;2218;51.408;7.208;2023-04-29T12:09:51;100079.06;;;19.86;47.24
4410;BME280;2218;51.408;7.208;2023-04-29T12:12:18;100067.69;;;19.86;47.19
4410;BME280;2218;51.408;7.208;2023-04-29T12:14:46;100075.50;;;19.87;47.22
4410;BME280;2218;51.408;7.208;2023-04-29T12:17:13;100066.63;;;19.88;47.15
4410;BME280;2218;51.408;7.208;2023-04-29T12:19:43;100072.78;;;19.89;47.30
4410;BME280;2218;51.408;7.208;2023-04-29T12:22:10;100068.34;;;19.90;47.33
4410;BME280;2218;51.408;7.208;2023-04-29T12:24:40;100075.41;;;19.89;47.34
4410;BME280;2218;51.408;7.208;2023-04-29T12:27:08;100071.06;;;19.88;47.17
4410;BME280;2218;51.408;7.208;2023-04-29T12:29:36;100073.69;;;19.88;47.34
4410;BME280;2218;51.408;7.208;2023-04-29T12:32:05;100079.81;;;19.88;47.28
4410;BME280;2218;51.408;7.208;2023-04-29T12:34:33;100081.59;;;19.88;47.10
4410;BME280;2218;51.408;7.208;2023-04-29T12:37:00;100080.75;;;19.87;47.15
4410;BME280;2218;51.408;7.208;2023-04-29T12:39:29;100078.97;;;19.88;47.20
4410;BME280;2218;51.408;7.208;2023-04-29T12:41:59;100086.03;;;19.87;47.10
4410;BME280;2218;51.408;7.208;2023-04-29T12:44:34;100082.44;;;19.88;47.26
4410;BME280;2218;51.408;7.208;2023-04-29T12:47:07;100083.41;;;19.87;47.48
4410;BME280;2218;51.408;7.208;2023-04-29T12:49:35;100077.28;;;19.87;47.18
4410;BME280;2218;51.408;7.208;2023-04-29T12:52:03;100084.34;;;19.86;46.99
4410;BME280;2218;51.408;7.208;2023-04-29T12:54:30;100081.59;;;19.88;47.39
4410;BME280;2218;51.408;7.208;2023-04-29T12:56:59;100078.13;;;19.87;47.30
4410;BME280;2218;51.408;7.208;2023-04-29T12:59:27;100073.81;;;19.86;47.02
4410;BME280;2218;51.408;7.208;2023-04-29T13:01:54;100079.06;;;19.86;47.03
4410;BME280;2218;51.408;7.208;2023-04-29T13:04:21;100079.91;;;19.87;46.97
4410;BME280;2218;51.408;7.208;2023-04-29T13:06:48;100078.13;;;19.87;46.95
4410;BME280;2218;51.408;7.208;2023-04-29T13:09:19;100079.06;;;19.86;47.06
4410;BME280;2218;51.408;7.208;2023-04-29T13:11:45;100081.59;;;19.88;46.92
4410;BME280;2218;51.408;7.208;2023-04-29T13:14:14;100079.06;;;19.86;46.96
4410;BME280;2218;51.408;7.208;2023-04-29T13:16:41;100084.34;;;19.86;47.08
4410;BME280;2218;51.408;7.208;2023-04-29T13:19:08;100091.31;;;19.87;46.84
4410;BME280;2218;51.408;7.208;2023-04-29T13:21:35;100084.25;;;19.88;46.94
4410;BME280;2218;51.408;7.208;2023-04-29T13:24:02;100087.84;;;19.87;46.90
4410;BME280;2218;51.408;7.208;2023-04-29T13:26:29;100091.31;;;19.87;46.97
4410;BME280;2218;51.408;7.208;2023-04-29T13:28:56;100094.91;;;19.86;46.96
4410;BME280;2218;51.408;7.208;2023-04-29T13:31:24;100097.53;;;19.86;46.79
4410;BME280;2218;51.408;7.208;2023-04-29T13:33:52;100094.06;;;19.86;46.89